Stations météo

réclame
Mon MeteoGroup
Lauwersoog aws, Pays-Bas (6277): Température de l'air & dewpoint: 18.10.2018 07:00:00 - 24.10.2018 07:00:00 (CEST)Lauwersoog aws, Pays-Bas (6277): Température de l'air 5cm: 18.10.2018 07:00:00 - 24.10.2018 07:00:00 (CEST)Lauwersoog aws, Pays-Bas (6277): Vitesse du vent & gusts: 18.10.2018 07:00:00 - 24.10.2018 07:00:00 (CEST)Lauwersoog aws, Pays-Bas (6277): Direction du vent: 18.10.2018 07:00:00 - 24.10.2018 07:00:00 (CEST)Lauwersoog aws, Pays-Bas (6277): Quantités de précipitations: 18.10.2018 07:00:00 - 24.10.2018 07:00:00 (CEST)
Date & Time tt [°C] td [°C] tt 5cm [°C] ff [km/h] ff [knt] fx [km/h] fx [knt] dd rr [mm]
24.10.2018 07:00:00 12,4 11,7 11,9 50 27 68 37 NW 2,2
24.10.2018 06:00:00 13,4 12,1 12,7 47 25 68 37 NNW 1,0
24.10.2018 05:00:00 13,6 11,8 13,1 50 27 68 37 NW 0,2
24.10.2018 04:00:00 13,7 11,7 13,0 50 27 76 41 NW 0,0
24.10.2018 03:00:00 13,8 11,8 13,4 50 27 68 37 NW 0,1
24.10.2018 02:00:00 13,2 12,4 12,9 47 25 61 33 WNW 0,5
24.10.2018 01:00:00 13,8 12,2 13,2 47 25 65 35 NW 0,1
24.10.2018 00:00:00 13,3 12,4 13,0 47 25 65 35 WNW 0,1
23.10.2018 23:00:00 13,9 12,1 13,1 47 25 61 33 WNW 0,2
23.10.2018 22:00:00 13,9 11,5 13,6 47 25 65 35 WNW 0,0
23.10.2018 21:00:00 13,9 11,4 13,6 50 27 65 35 WNW 0,0
23.10.2018 20:00:00 14,0 10,7 13,5 58 31 68 37 WNW 0,0
23.10.2018 19:00:00 13,7 11,0 13,2 54 29 65 35 WNW 0,0
23.10.2018 18:00:00 13,5 10,7 13,0 50 27 65 35 WNW 0,0
23.10.2018 17:00:00 13,5 10,5 13,2 54 29 68 37 WNW 0,0
23.10.2018 16:00:00 13,6 10,7 13,3 50 27 65 35 WNW 0,0
23.10.2018 15:00:00 13,0 10,7 12,6 50 27 68 37 WNW 0,0
23.10.2018 14:00:00 12,9 10,8 12,6 50 27 68 37 WNW 0,0
23.10.2018 13:00:00 12,7 10,7 12,4 58 31 72 39 WNW 0,4
23.10.2018 12:00:00 13,0 11,2 12,5 50 27 68 37 WNW 0,4
23.10.2018 11:00:00 13,2 11,2 12,7 54 29 65 35 WNW 0,2
23.10.2018 10:00:00 13,1 10,7 12,4 50 27 61 33 W 0,1
23.10.2018 09:00:00 12,9 9,8 12,4 47 25 65 35 W 0,0
23.10.2018 08:00:00 12,9 9,3 12,5 43 23 61 33 W 0,0
23.10.2018 07:00:00 12,8 9,1 12,4 43 23 54 29 W 0,0
23.10.2018 06:00:00 12,6 9,0 12,3 43 23 61 33 W 0,0
23.10.2018 05:00:00 12,4 9,0 12,1 43 23 58 31 W 0,0
23.10.2018 04:00:00 12,4 8,7 11,9 43 23 58 31 W 0,0
23.10.2018 03:00:00 12,2 8,9 11,8 36 19 50 27 W 0,0
23.10.2018 02:00:00 12,0 7,7 11,5 40 21 54 29 W 0,0
23.10.2018 01:00:00 10,5 7,4 9,2 18 10 29 16 WSW 0,0
23.10.2018 00:00:00 9,4 6,1 8,4 18 10 29 16 WSW 0,0
22.10.2018 23:00:00 9,1 5,8 8,4 18 10 32 18 SW 0,0
22.10.2018 22:00:00 9,9 5,9 9,0 14 8 36 19 WSW 0,0
22.10.2018 21:00:00 11,8 6,4 10,9 32 18 40 21 W 0,0
22.10.2018 20:00:00 12,0 7,1 11,3 22 12 40 21 W 0,0
22.10.2018 19:00:00 12,0 5,8 11,1 29 16 36 19 WNW 0,0
22.10.2018 18:00:00 12,2 3,7 11,1 25 14 32 18 NW 0,0
22.10.2018 17:00:00 13,2 5,0 13,3 25 14 36 19 NW 0,0
22.10.2018 16:00:00 13,2 5,3 12,4 29 16 36 19 NNW 0,0
22.10.2018 15:00:00 13,2 3,6 13,5 25 14 40 21 NNW 0,0
22.10.2018 14:00:00 13,5 5,3 13,9 32 18 43 23 NNW 0,0
22.10.2018 13:00:00 13,4 6,7 13,9 32 18 43 23 NNW 0,0
22.10.2018 12:00:00 14,1 6,8 12,9 29 16 40 21 NNW 0,0
22.10.2018 11:00:00 13,4 5,6 13,4 32 18 43 23 N 0,0
22.10.2018 10:00:00 13,0 6,8 12,5 32 18 43 23 N 0,0
22.10.2018 09:00:00 13,1 7,3 12,2 36 19 43 23 N 0,0
22.10.2018 08:00:00 12,9 8,1 12,0 32 18 43 23 N 0,0
22.10.2018 07:00:00 13,0 9,2 12,1 22 12 36 19 NNW 0,0
22.10.2018 06:00:00 13,2 9,0 12,7 25 14 40 21 N 0,0
22.10.2018 05:00:00 13,3 9,8 12,8 32 18 43 23 N 0,0
22.10.2018 04:00:00 13,0 9,5 12,4 36 19 43 23 N 0,2
22.10.2018 03:00:00 13,4 12,3 13,1 36 19 50 27 N 0,0
22.10.2018 02:00:00 14,1 13,6 13,7 22 12 32 18 NW 0,1
22.10.2018 01:00:00 14,0 13,4 13,5 14 8 22 12 W 0,1
22.10.2018 00:00:00 13,9 12,3 13,4 14 8 22 12 WSW 0,0
21.10.2018 23:00:00 13,2 11,0 12,8 14 8 22 12 SW 0,0
21.10.2018 22:00:00 12,9 10,3 12,5 14 8 25 14 SW 0,0
21.10.2018 21:00:00 13,3 9,8 12,9 18 10 29 16 SW 0,0
21.10.2018 20:00:00 12,9 9,8 12,1 18 10 25 14 SW 0,0
21.10.2018 19:00:00 13,3 9,5 12,3 14 8 25 14 SW 0,0
21.10.2018 18:00:00 14,1 9,7 13,4 18 10 36 19 SSW 0,0
21.10.2018 17:00:00 14,7 10,1 14,5 18 10 36 19 SSW 0,0
21.10.2018 16:00:00 15,2 10,5 15,2 25 14 40 21 SSW 0,0
21.10.2018 15:00:00 15,5 11,3 15,8 22 12 36 19 SSW 0,0
21.10.2018 14:00:00 15,4 11,2 15,8 25 14 36 19 SSW 0,0
21.10.2018 13:00:00 15,9 11,6 16,7 18 10 32 18 SSW 0,0
21.10.2018 12:00:00 14,7 11,5 14,5 22 12 32 18 SSW 0,0
21.10.2018 11:00:00 13,6 11,3 13,8 22 12 32 18 SSW 0,0
21.10.2018 10:00:00 12,3 11,0 12,1 14 8 25 14 SSW 0,0
21.10.2018 09:00:00 11,5 11,0 10,7 14 8 22 12 SSW 0,0
21.10.2018 08:00:00 11,5 10,9 10,8 14 8 25 14 SSW 0,0
21.10.2018 07:00:00 12,0 11,2 11,5 18 10 25 14 SW 0,0
21.10.2018 06:00:00 12,1 11,3 11,5 14 8 25 14 SSW 0,0
21.10.2018 05:00:00 11,9 10,9 11,4 14 8 22 12 SSW 0,0
21.10.2018 04:00:00 11,8 10,8 11,4 14 8 22 12 SSW 0,0
21.10.2018 03:00:00 11,4 10,6 11,0 11 6 18 10 SSW 0,0
21.10.2018 02:00:00 11,5 10,5 10,8 14 8 18 10 SW 0,0
21.10.2018 01:00:00 11,8 10,8 11,1 14 8 22 12 SW 0,0
21.10.2018 00:00:00 12,5 10,8 11,8 11 6 18 10 SW 0,0
20.10.2018 23:00:00 13,0 11,2 12,6 11 6 18 10 WSW 0,0
20.10.2018 22:00:00 13,3 11,5 12,9 7 4 22 12 WSW 0,0
20.10.2018 21:00:00 13,5 11,7 13,2 11 6 14 8 W 0,0
20.10.2018 20:00:00 13,7 11,6 13,3 11 6 22 12 W 0,0
20.10.2018 19:00:00 14,0 11,5 13,5 14 8 22 12 W 0,0
20.10.2018 18:00:00 14,1 11,4 13,4 18 10 25 14 W 0,0
20.10.2018 17:00:00 14,8 11,1 14,5 22 12 29 16 WNW 0,0
20.10.2018 16:00:00 15,4 11,5 14,7 25 14 32 18 W 0,0
20.10.2018 15:00:00 15,2 10,9 15,6 22 12 32 18 W 0,0
20.10.2018 14:00:00 14,7 10,7 14,7 25 14 36 19 W 0,0
20.10.2018 13:00:00 14,8 11,0 15,0 25 14 32 18 W 0,0
20.10.2018 12:00:00 14,9 11,0 14,9 18 10 29 16 W 0,0
20.10.2018 11:00:00 12,9 9,8 13,0 11 6 22 12 WSW 0,0
20.10.2018 10:00:00 11,4 8,8 11,4 14 8 22 12 SW 0,0
20.10.2018 09:00:00 9,8 7,8 9,3 14 8 25 14 SW 0,0
20.10.2018 08:00:00 9,5 7,5 9,0 14 8 25 14 SW 0,0
20.10.2018 07:00:00 8,7 6,8 8,2 14 8 22 12 SW 0,0
20.10.2018 06:00:00 9,3 6,7 8,6 11 6 22 12 SW 0,0
20.10.2018 05:00:00 8,6 6,4 8,1 7 4 18 10 SSW 0,0
20.10.2018 04:00:00 8,0 6,5 7,4 14 8 18 10 SSW 0,0
20.10.2018 03:00:00 8,0 6,3 7,4 11 6 18 10 S 0,0
20.10.2018 02:00:00 8,0 6,7 7,2 7 4 14 8 SSW 0,0
20.10.2018 01:00:00 7,7 7,1 6,3 7 4 11 6 SSW 0,0
20.10.2018 00:00:00 8,4 7,6 5,6 7 4 11 6 SW 0,0
19.10.2018 23:00:00 8,5 7,3 4,2 7 4 7 4 SSW 0,0
19.10.2018 22:00:00 8,6 6,5 4,3 7 4 11 6 S 0,0
19.10.2018 21:00:00 9,6 5,1 4,6 7 4 11 6 SSE 0,0
19.10.2018 20:00:00 10,0 6,2 8,5 4 2 11 6 SSE 0,0
19.10.2018 19:00:00 10,7 4,6 7,9 4 2 11 6 ESE 0,0
19.10.2018 18:00:00 11,8 4,9 10,8 7 4 18 10 NE 0,0
19.10.2018 17:00:00 12,5 4,8 12,1 11 6 18 10 NE 0,0
19.10.2018 16:00:00 12,7 4,6 13,3 14 8 22 12 NE 0,0
19.10.2018 15:00:00 12,8 4,6 13,7 11 6 18 10 ENE 0,0
19.10.2018 14:00:00 12,8 4,8 13,4 7 4 18 10 E 0,0
19.10.2018 13:00:00 12,6 4,5 13,4 14 8 22 12 SE 0,0
19.10.2018 12:00:00 12,2 4,3 13,1 14 8 22 12 SSE 0,0
19.10.2018 11:00:00 11,5 4,7 11,6 14 8 22 12 SE 0,0
19.10.2018 10:00:00 10,8 6,6 10,5 11 6 22 12 SE 0,0
19.10.2018 09:00:00 10,2 6,5 9,8 14 8 18 10 SSE 0,0
19.10.2018 08:00:00 10,7 5,7 9,9 7 4 14 8 SE 0,0
19.10.2018 07:00:00 10,7 5,1 9,9 7 4 14 8 SE 0,0
19.10.2018 06:00:00 10,8 5,9 10,1 7 4 18 10 SE 0,0
19.10.2018 05:00:00 10,9 4,9 9,7 14 8 18 10 ESE 0,0
19.10.2018 04:00:00 11,1 5,4 10,5 11 6 14 8 ESE 0,0
19.10.2018 03:00:00 11,3 5,9 10,6 11 6 22 12 ESE 0,0
19.10.2018 02:00:00 11,1 6,1 9,8 14 8 22 12 E 0,0
19.10.2018 01:00:00 10,7 6,6 9,4 7 4 18 10 E 0,0
19.10.2018 00:00:00 12,3 6,5 11,4 18 10 22 12 ENE 0,0
18.10.2018 23:00:00 12,7 7,6 12,1 22 12 25 14 NE 0,0
18.10.2018 22:00:00 12,9 8,0 12,0 18 10 32 18 NE 0,0
18.10.2018 21:00:00 12,9 7,5 12,1 25 14 32 18 NE 0,0
18.10.2018 20:00:00 13,6 8,5 12,9 29 16 36 19 NE 0,0
18.10.2018 19:00:00 13,9 9,2 13,2 22 12 29 16 NE 0,0
18.10.2018 18:00:00 13,9 9,1 13,2 22 12 29 16 NE 0,0
18.10.2018 17:00:00 14,5 9,8 14,1 22 12 29 16 NE 0,0
18.10.2018 16:00:00 14,5 9,5 14,8 22 12 32 18 NE 0,0
18.10.2018 15:00:00 14,4 9,6 14,6 29 16 32 18 NE 0,0
18.10.2018 14:00:00 15,3 10,8 15,8 25 14 32 18 NE 0,0
18.10.2018 13:00:00 15,2 10,2 15,1 29 16 32 18 NNE 0,0
18.10.2018 12:00:00 14,9 8,9 15,1 25 14 32 18 N 0,0
18.10.2018 11:00:00 14,4 9,5 14,2 25 14 32 18 N 0,0
18.10.2018 10:00:00 13,8 9,3 13,6 29 16 36 19 N 0,0
18.10.2018 09:00:00 13,7 9,6 13,2 29 16 40 21 N 0,0
18.10.2018 08:00:00 13,6 10,0 12,9 32 18 40 21 N 0,0
18.10.2018 07:00:00 13,9 10,6 13,3 32 18 36 19 N 0,0

tt = Température de l'air
td = dewpoint
tt 5cm = Température de l'air 5cm
ff = Vitesse du vent
fx = gusts
dd = Direction du vent
rr = Quantités de précipitations

stations d'obs. à proximité